createdAt,value
2022-12-31T00:02:18.973Z,5.00
2022-12-31T00:05:20.303Z,5.02
2022-12-31T00:07:58.991Z,5.02
2022-12-31T00:10:57.352Z,5.05
2022-12-31T00:13:35.731Z,5.07
2022-12-31T00:16:40.477Z,5.10
2022-12-31T00:19:28.124Z,5.12
2022-12-31T00:22:21.000Z,5.17
2022-12-31T00:25:05.044Z,5.20
2022-12-31T00:28:45.861Z,5.23
2022-12-31T00:31:12.092Z,5.18
2022-12-31T00:34:00.968Z,5.22
2022-12-31T00:36:40.063Z,5.29
2022-12-31T00:39:47.310Z,5.35
2022-12-31T00:42:30.749Z,5.40
2022-12-31T00:45:43.520Z,5.43
2022-12-31T00:48:39.403Z,5.45
2022-12-31T00:51:37.899Z,5.51
2022-12-31T00:54:31.239Z,5.54
2022-12-31T00:57:28.945Z,5.57
2022-12-31T01:00:14.817Z,5.61
2022-12-31T01:03:05.418Z,5.68
2022-12-31T01:05:47.297Z,5.70
2022-12-31T01:08:21.208Z,5.72
2022-12-31T01:11:11.911Z,5.77
2022-12-31T01:13:59.456Z,5.82
2022-12-31T01:16:38.109Z,5.84
2022-12-31T01:19:19.878Z,5.89
2022-12-31T01:21:57.459Z,5.92
2022-12-31T01:24:39.818Z,5.95
2022-12-31T01:27:14.325Z,5.98
2022-12-31T01:29:49.818Z,6.01
2022-12-31T01:32:23.374Z,6.06
2022-12-31T01:34:56.842Z,6.09
2022-12-31T01:37:36.044Z,6.12
2022-12-31T01:40:26.968Z,6.13
2022-12-31T01:43:45.081Z,6.12
2022-12-31T01:46:44.813Z,6.14
2022-12-31T01:49:49.514Z,6.14
2022-12-31T01:52:45.042Z,6.14
2022-12-31T01:55:28.781Z,6.18
2022-12-31T01:58:17.804Z,6.21
2022-12-31T02:01:05.457Z,6.24
2022-12-31T02:03:43.026Z,6.28
2022-12-31T02:06:22.255Z,6.34
2022-12-31T02:08:57.198Z,6.38
2022-12-31T02:11:38.059Z,6.41
2022-12-31T02:14:19.718Z,6.43
2022-12-31T02:17:39.262Z,6.46
2022-12-31T02:20:45.823Z,6.45
2022-12-31T02:23:38.697Z,6.49
2022-12-31T02:26:19.147Z,6.55
2022-12-31T02:29:56.340Z,6.55
2022-12-31T02:34:09.275Z,6.56
2022-12-31T02:36:46.343Z,6.58
2022-12-31T02:39:44.559Z,6.65
2022-12-31T02:42:41.102Z,6.75
2022-12-31T02:45:43.428Z,6.84
2022-12-31T02:48:47.566Z,6.90
2022-12-31T02:53:01.054Z,6.92
2022-12-31T02:55:23.377Z,6.94
2022-12-31T02:58:20.651Z,6.99
2022-12-31T03:01:19.669Z,7.03
2022-12-31T03:04:44.843Z,7.05
2022-12-31T03:08:05.885Z,7.09
2022-12-31T03:11:06.103Z,7.12
2022-12-31T03:14:16.177Z,7.18
2022-12-31T03:16:55.793Z,7.25
2022-12-31T03:20:02.661Z,7.33
2022-12-31T03:22:53.444Z,7.41
2022-12-31T03:25:41.153Z,7.49
2022-12-31T03:28:22.987Z,7.57
2022-12-31T03:31:08.811Z,7.64
2022-12-31T03:33:43.707Z,7.71
2022-12-31T03:36:31.192Z,7.78
2022-12-31T03:39:09.968Z,7.84
2022-12-31T03:41:46.857Z,7.93
2022-12-31T03:44:33.611Z,7.99
2022-12-31T03:47:12.104Z,8.09
2022-12-31T03:50:03.138Z,8.14
2022-12-31T03:52:48.848Z,8.21
2022-12-31T03:56:26.570Z,8.29
2022-12-31T03:58:44.323Z,8.34
2022-12-31T04:01:47.137Z,8.39
2022-12-31T04:04:37.113Z,8.43
2022-12-31T04:07:27.902Z,8.45
2022-12-31T04:10:18.431Z,8.50
2022-12-31T04:13:05.975Z,8.53
2022-12-31T04:16:06.169Z,8.54
2022-12-31T04:19:09.004Z,8.57
2022-12-31T04:22:03.455Z,8.59
2022-12-31T04:24:48.108Z,8.62
2022-12-31T04:27:46.906Z,8.62
2022-12-31T04:30:41.275Z,8.61
2022-12-31T04:33:20.800Z,8.60
2022-12-31T04:36:15.668Z,8.61
2022-12-31T04:39:02.093Z,8.62
2022-12-31T04:42:04.870Z,8.63
2022-12-31T04:44:45.258Z,8.64
2022-12-31T04:47:40.083Z,8.66
2022-12-31T04:50:48.239Z,8.65
2022-12-31T04:53:33.512Z,8.66
2022-12-31T04:56:20.188Z,8.66
2022-12-31T04:59:38.171Z,8.56
2022-12-31T05:02:29.581Z,8.56
2022-12-31T05:05:19.525Z,8.59
2022-12-31T05:07:58.012Z,8.64
2022-12-31T05:10:37.463Z,8.65
2022-12-31T05:13:29.471Z,8.65
2022-12-31T05:16:22.551Z,8.62
2022-12-31T05:18:58.939Z,8.65
2022-12-31T05:21:46.389Z,8.72
2022-12-31T05:24:39.497Z,8.70
2022-12-31T05:27:16.670Z,8.71
2022-12-31T05:29:50.451Z,8.74
2022-12-31T05:32:41.870Z,8.78
2022-12-31T05:35:32.667Z,8.79
2022-12-31T05:38:18.885Z,8.76
2022-12-31T05:41:06.284Z,8.66
2022-12-31T05:43:47.472Z,8.68
2022-12-31T05:46:42.520Z,8.72
2022-12-31T05:49:25.546Z,8.74
2022-12-31T05:53:16.902Z,8.75
2022-12-31T05:55:28.686Z,8.70
2022-12-31T05:58:22.780Z,8.67
2022-12-31T06:01:19.828Z,8.62
2022-12-31T06:04:01.632Z,8.61
2022-12-31T06:06:37.797Z,8.61
2022-12-31T06:09:35.364Z,8.58
2022-12-31T06:12:38.066Z,8.53
2022-12-31T06:15:16.142Z,8.50
2022-12-31T06:18:12.408Z,8.50
2022-12-31T06:21:09.478Z,8.49
2022-12-31T06:23:46.460Z,8.49
2022-12-31T06:26:32.489Z,8.53
2022-12-31T06:29:10.720Z,8.55
2022-12-31T06:31:42.331Z,8.60
2022-12-31T06:34:21.788Z,8.62
2022-12-31T06:37:20.259Z,8.60
2022-12-31T06:39:55.024Z,8.61
2022-12-31T06:43:22.726Z,8.62
2022-12-31T06:46:07.224Z,8.61
2022-12-31T06:48:56.435Z,8.65
2022-12-31T06:51:41.313Z,8.69
2022-12-31T06:54:31.270Z,8.70
2022-12-31T06:57:44.714Z,8.71
2022-12-31T07:01:21.524Z,8.77
2022-12-31T07:04:18.203Z,8.78
2022-12-31T07:07:07.699Z,8.80
2022-12-31T07:10:16.996Z,8.83
2022-12-31T07:13:34.912Z,8.88
2022-12-31T07:16:41.103Z,8.90
2022-12-31T07:19:36.728Z,8.93
2022-12-31T07:22:22.691Z,8.95
2022-12-31T07:25:10.448Z,8.97
2022-12-31T07:27:54.020Z,9.01
2022-12-31T07:30:54.763Z,9.06
2022-12-31T07:34:08.603Z,9.11
2022-12-31T07:37:00.167Z,9.13
2022-12-31T07:40:37.010Z,9.16
2022-12-31T07:43:26.223Z,9.17
2022-12-31T07:46:14.006Z,9.22
2022-12-31T07:48:43.986Z,9.26
2022-12-31T07:51:14.334Z,9.28
2022-12-31T07:53:55.026Z,9.31
2022-12-31T07:56:35.364Z,9.36
2022-12-31T07:59:35.610Z,9.39
2022-12-31T08:03:46.239Z,9.42
2022-12-31T08:06:58.592Z,9.44
2022-12-31T08:10:12.539Z,9.50
2022-12-31T08:13:27.950Z,9.56
2022-12-31T08:16:20.245Z,9.61
2022-12-31T08:19:39.753Z,9.67
2022-12-31T08:22:33.583Z,9.73
2022-12-31T08:25:46.030Z,9.82
2022-12-31T08:28:52.946Z,9.90
2022-12-31T08:31:56.787Z,10.02
2022-12-31T08:34:45.863Z,10.14
2022-12-31T08:38:12.874Z,10.21
2022-12-31T08:41:34.292Z,10.24
2022-12-31T08:44:45.107Z,10.25
2022-12-31T08:47:55.031Z,10.28
2022-12-31T08:50:32.511Z,10.30
2022-12-31T08:53:12.996Z,10.34
2022-12-31T08:56:33.995Z,10.40
2022-12-31T08:59:51.655Z,10.45
2022-12-31T09:03:35.367Z,10.54
2022-12-31T09:06:37.626Z,10.64
2022-12-31T09:09:47.593Z,10.72
2022-12-31T09:12:37.132Z,10.75
2022-12-31T09:16:04.222Z,10.77
2022-12-31T09:18:45.479Z,10.75
2022-12-31T09:21:16.731Z,10.73
2022-12-31T09:23:47.779Z,10.68
2022-12-31T09:26:51.945Z,10.62
2022-12-31T09:30:07.844Z,10.57
2022-12-31T09:33:03.204Z,10.56
2022-12-31T09:36:14.584Z,10.57
2022-12-31T09:40:01.163Z,10.59
2022-12-31T09:43:16.896Z,10.60
2022-12-31T09:46:35.713Z,10.65
2022-12-31T09:49:43.438Z,10.69
2022-12-31T09:52:46.199Z,10.73
2022-12-31T09:55:45.093Z,10.78
2022-12-31T09:58:49.640Z,10.80
2022-12-31T10:01:56.620Z,10.83
2022-12-31T10:04:58.926Z,10.87
2022-12-31T10:07:50.377Z,10.89
2022-12-31T10:11:06.074Z,10.92
2022-12-31T10:14:19.014Z,11.00
2022-12-31T10:17:36.549Z,11.11
2022-12-31T10:20:54.641Z,11.26
2022-12-31T10:24:13.771Z,11.37
2022-12-31T10:26:55.027Z,11.49
2022-12-31T10:29:59.374Z,11.60
2022-12-31T10:32:58.998Z,11.72
2022-12-31T10:36:09.137Z,11.85
2022-12-31T10:39:23.866Z,11.90
2022-12-31T10:42:33.370Z,11.90
2022-12-31T10:46:00.519Z,11.95
2022-12-31T10:49:29.966Z,12.04
2022-12-31T10:52:13.395Z,12.20
2022-12-31T10:55:16.347Z,12.45
2022-12-31T10:58:01.885Z,12.69
2022-12-31T11:01:34.615Z,12.91
2022-12-31T11:05:01.377Z,13.25
2022-12-31T11:08:17.362Z,13.61
2022-12-31T11:11:50.515Z,13.85
2022-12-31T11:14:54.249Z,13.96
2022-12-31T11:17:59.770Z,13.95
2022-12-31T11:21:16.982Z,13.77
2022-12-31T11:23:53.303Z,13.69
2022-12-31T11:27:26.455Z,13.90
2022-12-31T11:30:36.072Z,14.03
2022-12-31T11:34:07.714Z,13.99
2022-12-31T11:37:53.065Z,13.85
2022-12-31T11:40:54.175Z,13.77
2022-12-31T11:44:17.408Z,13.78
2022-12-31T11:48:29.817Z,13.72
2022-12-31T11:51:51.903Z,13.73
2022-12-31T11:58:31.294Z,13.77
2022-12-31T12:01:19.074Z,13.81
2022-12-31T12:04:01.431Z,13.85
2022-12-31T12:06:33.818Z,13.86
2022-12-31T12:09:28.805Z,13.86
2022-12-31T12:12:06.103Z,13.85
2022-12-31T12:14:47.496Z,13.87
2022-12-31T12:17:37.916Z,13.89
2022-12-31T12:20:35.823Z,13.81
2022-12-31T12:23:29.785Z,13.84
2022-12-31T12:26:53.725Z,13.89
2022-12-31T12:29:44.550Z,13.90
2022-12-31T12:32:27.960Z,13.95
2022-12-31T12:35:17.515Z,14.03
2022-12-31T12:37:47.436Z,14.10
2022-12-31T12:40:33.309Z,14.18
2022-12-31T12:43:04.431Z,14.26
2022-12-31T12:45:51.397Z,14.33
2022-12-31T12:48:42.514Z,14.40
2022-12-31T12:51:56.226Z,14.49
2022-12-31T12:54:39.198Z,14.54
2022-12-31T12:57:21.119Z,14.60
2022-12-31T13:00:22.095Z,14.65
2022-12-31T13:03:30.334Z,14.67
2022-12-31T13:06:05.261Z,14.67
2022-12-31T13:09:05.287Z,14.70
2022-12-31T13:11:54.199Z,14.71
2022-12-31T13:15:04.367Z,14.71
2022-12-31T13:18:19.356Z,14.70
2022-12-31T13:21:02.431Z,14.67
2022-12-31T13:23:50.345Z,14.70
2022-12-31T13:26:39.333Z,14.72
2022-12-31T13:29:17.423Z,14.74
2022-12-31T13:31:50.587Z,14.74
2022-12-31T13:34:27.404Z,14.72
2022-12-31T13:37:03.431Z,14.68
2022-12-31T13:39:40.864Z,14.67
2022-12-31T13:42:28.231Z,14.69
2022-12-31T13:45:40.199Z,14.67
2022-12-31T13:48:40.196Z,14.64
2022-12-31T13:51:52.868Z,14.61
2022-12-31T13:55:13.094Z,14.57
2022-12-31T13:58:52.819Z,14.54
2022-12-31T14:01:33.403Z,14.50
2022-12-31T14:04:52.408Z,14.48
2022-12-31T14:07:50.184Z,14.43
2022-12-31T14:10:39.232Z,14.42
2022-12-31T14:13:41.976Z,14.40
2022-12-31T14:16:19.505Z,14.36
2022-12-31T14:19:28.970Z,14.34
2022-12-31T14:22:26.977Z,14.31
2022-12-31T14:24:58.876Z,14.28
2022-12-31T14:27:53.137Z,14.27
2022-12-31T14:30:31.337Z,14.25
2022-12-31T14:34:06.587Z,14.26
2022-12-31T14:37:05.845Z,14.21
2022-12-31T14:40:20.448Z,14.20
2022-12-31T14:43:25.096Z,14.16
2022-12-31T14:46:32.532Z,14.13
2022-12-31T14:49:54.899Z,14.12
2022-12-31T14:53:08.332Z,14.08
2022-12-31T14:55:43.567Z,14.07
2022-12-31T14:58:35.529Z,14.09
2022-12-31T15:01:14.761Z,14.10
2022-12-31T15:03:59.228Z,14.02
2022-12-31T15:07:04.600Z,14.07
2022-12-31T15:10:24.247Z,14.04
2022-12-31T15:13:47.993Z,14.01
2022-12-31T15:17:09.080Z,14.00
2022-12-31T15:20:17.576Z,14.01
2022-12-31T15:22:55.632Z,14.04
2022-12-31T15:25:40.392Z,14.05
2022-12-31T15:28:37.934Z,14.03
2022-12-31T15:31:18.176Z,14.02
2022-12-31T15:34:07.186Z,14.04
2022-12-31T15:36:54.917Z,14.06
2022-12-31T15:39:43.268Z,14.07
2022-12-31T15:42:49.410Z,14.08
2022-12-31T15:45:36.114Z,14.07
2022-12-31T15:48:27.976Z,14.10
2022-12-31T15:51:02.549Z,14.15
2022-12-31T15:53:45.913Z,14.20
2022-12-31T15:56:22.693Z,14.26
2022-12-31T15:59:00.921Z,14.29
2022-12-31T16:01:36.434Z,14.35
2022-12-31T16:04:25.860Z,14.41
2022-12-31T16:07:08.817Z,14.45
2022-12-31T16:09:45.370Z,14.49
2022-12-31T16:12:40.805Z,14.53
2022-12-31T16:15:31.536Z,14.54
2022-12-31T16:18:22.632Z,14.56
2022-12-31T16:21:43.315Z,14.56
2022-12-31T16:25:28.504Z,14.55
2022-12-31T16:28:08.736Z,14.55
2022-12-31T16:31:04.179Z,14.57
2022-12-31T16:33:42.083Z,14.60
2022-12-31T16:36:27.555Z,14.63
2022-12-31T16:39:45.495Z,14.66
2022-12-31T16:42:38.128Z,14.68
2022-12-31T16:45:40.839Z,14.70
2022-12-31T16:48:21.070Z,14.72
2022-12-31T16:51:00.845Z,14.72
2022-12-31T16:53:38.619Z,14.71
2022-12-31T16:56:12.603Z,14.68
2022-12-31T16:58:45.825Z,14.63
2022-12-31T17:01:32.020Z,14.52
2022-12-31T17:04:29.522Z,14.50
2022-12-31T17:08:21.855Z,14.49
2022-12-31T17:13:43.543Z,14.45
2022-12-31T17:16:23.442Z,14.45
2022-12-31T17:21:51.325Z,14.41
2022-12-31T17:24:33.925Z,14.38
2022-12-31T17:28:15.395Z,14.34
2022-12-31T17:31:05.856Z,14.30
2022-12-31T17:34:16.066Z,14.29
2022-12-31T17:37:19.905Z,14.30
2022-12-31T17:41:26.770Z,14.29
2022-12-31T17:44:37.301Z,14.23
2022-12-31T17:47:24.307Z,14.23
2022-12-31T17:49:57.558Z,14.26
2022-12-31T17:52:56.206Z,14.28
2022-12-31T17:55:36.891Z,14.27
2022-12-31T17:58:15.636Z,14.26
2022-12-31T18:00:45.464Z,14.25
2022-12-31T18:03:30.195Z,14.24
2022-12-31T18:06:29.298Z,14.21
2022-12-31T18:09:16.747Z,14.21
2022-12-31T18:12:05.656Z,14.20
2022-12-31T18:14:37.942Z,14.21
2022-12-31T18:17:26.751Z,14.20
2022-12-31T18:20:06.168Z,14.18
2022-12-31T18:22:42.026Z,14.14
2022-12-31T18:28:15.235Z,14.12
2022-12-31T18:30:50.121Z,14.14
2022-12-31T18:34:01.645Z,14.13
2022-12-31T18:36:35.909Z,14.14
2022-12-31T18:39:35.635Z,14.12
2022-12-31T18:42:24.285Z,14.08
2022-12-31T18:45:04.414Z,14.06
2022-12-31T18:47:42.125Z,14.05
2022-12-31T18:50:21.403Z,14.07
2022-12-31T18:53:06.320Z,14.10
2022-12-31T18:55:48.128Z,14.14
2022-12-31T18:58:19.321Z,14.15
2022-12-31T19:00:57.816Z,14.13
2022-12-31T19:03:53.278Z,14.12
2022-12-31T19:06:59.852Z,14.10
2022-12-31T19:10:41.798Z,14.09
2022-12-31T19:13:32.632Z,14.06
2022-12-31T19:16:39.734Z,14.06
2022-12-31T19:20:30.213Z,14.06
2022-12-31T19:23:44.328Z,14.07
2022-12-31T19:26:59.910Z,14.09
2022-12-31T19:29:55.427Z,14.13
2022-12-31T19:32:45.408Z,14.17
2022-12-31T19:35:42.266Z,14.20
2022-12-31T19:38:25.177Z,14.21
2022-12-31T19:40:57.474Z,14.22
2022-12-31T19:43:27.642Z,14.21
2022-12-31T19:46:04.032Z,14.17
2022-12-31T19:48:36.402Z,14.11
2022-12-31T19:51:20.832Z,14.06
2022-12-31T19:53:50.625Z,14.04
2022-12-31T19:56:21.029Z,13.99
2022-12-31T19:58:53.180Z,13.96
2022-12-31T20:01:25.561Z,13.92
2022-12-31T20:03:56.684Z,13.89
2022-12-31T20:06:28.884Z,13.89
2022-12-31T20:09:08.078Z,13.87
2022-12-31T20:11:44.448Z,13.85
2022-12-31T20:14:19.780Z,13.84
2022-12-31T20:17:01.680Z,13.85
2022-12-31T20:19:34.562Z,13.84
2022-12-31T20:22:04.891Z,13.85
2022-12-31T20:24:35.234Z,13.86
2022-12-31T20:27:13.502Z,13.84
2022-12-31T20:29:51.334Z,13.83
2022-12-31T20:32:27.304Z,13.84
2022-12-31T20:34:57.067Z,13.86
2022-12-31T20:37:26.912Z,13.88
2022-12-31T20:39:59.482Z,13.90
2022-12-31T20:42:31.665Z,13.92
2022-12-31T20:45:09.839Z,13.94
2022-12-31T20:47:39.773Z,13.86
2022-12-31T20:50:14.248Z,13.89
2022-12-31T20:52:46.521Z,13.93
2022-12-31T20:55:27.612Z,13.98
2022-12-31T20:57:58.197Z,14.01
2022-12-31T21:00:28.895Z,14.05
2022-12-31T21:03:18.604Z,14.09
2022-12-31T21:05:55.545Z,14.10
2022-12-31T21:08:34.795Z,14.14
2022-12-31T21:11:48.319Z,14.15
2022-12-31T21:14:19.360Z,14.15
2022-12-31T21:16:53.634Z,14.18
2022-12-31T21:19:24.245Z,14.18
2022-12-31T21:22:15.583Z,14.16
2022-12-31T21:24:53.150Z,14.14
2022-12-31T21:27:44.527Z,14.12
2022-12-31T21:30:22.544Z,14.11
2022-12-31T21:33:02.227Z,14.10
2022-12-31T21:36:10.784Z,14.10
2022-12-31T21:39:04.719Z,14.10
2022-12-31T21:41:59.992Z,14.11
2022-12-31T21:44:49.791Z,14.02
2022-12-31T21:47:58.445Z,14.04
2022-12-31T21:50:46.823Z,14.06
2022-12-31T21:53:36.710Z,14.09
2022-12-31T21:56:18.546Z,14.11
2022-12-31T21:59:16.082Z,14.14
2022-12-31T22:02:13.543Z,14.16
2022-12-31T22:05:06.907Z,14.16
2022-12-31T22:08:03.682Z,14.16
2022-12-31T22:11:15.213Z,14.15
2022-12-31T22:13:53.223Z,14.16
2022-12-31T22:16:35.358Z,14.18
2022-12-31T22:19:12.474Z,14.20
2022-12-31T22:22:07.047Z,14.21
2022-12-31T22:24:59.445Z,14.23
2022-12-31T22:27:36.582Z,14.25
2022-12-31T22:30:18.600Z,14.28
2022-12-31T22:33:13.387Z,14.29
2022-12-31T22:36:09.472Z,14.28
2022-12-31T22:38:54.229Z,14.26
2022-12-31T22:41:43.779Z,14.27
2022-12-31T22:44:36.581Z,14.24
2022-12-31T22:47:23.003Z,14.25
2022-12-31T22:50:08.636Z,14.25
2022-12-31T22:52:47.390Z,14.24
2022-12-31T22:55:37.085Z,14.24
2022-12-31T22:58:27.300Z,14.25
2022-12-31T23:01:28.468Z,14.23
2022-12-31T23:04:07.591Z,14.19
2022-12-31T23:07:12.962Z,14.20
2022-12-31T23:10:20.884Z,14.21
2022-12-31T23:13:50.617Z,14.18
2022-12-31T23:16:49.516Z,14.13
2022-12-31T23:20:43.348Z,14.07
2022-12-31T23:23:30.623Z,13.99
2022-12-31T23:26:13.145Z,13.97
2022-12-31T23:28:47.875Z,13.99
2022-12-31T23:31:32.112Z,14.00
2022-12-31T23:34:23.741Z,13.99
2022-12-31T23:37:01.637Z,13.97
2022-12-31T23:39:54.133Z,13.95
2022-12-31T23:43:02.318Z,13.93
2022-12-31T23:45:59.109Z,13.93
2022-12-31T23:48:35.436Z,13.94
2022-12-31T23:54:19.518Z,13.95
2022-12-31T23:57:01.091Z,13.95
2022-12-31T23:59:53.003Z,13.91
